createdAt,value
2023-01-04T00:00:16.323Z,4.8
2023-01-04T00:01:23.707Z,4.7
2023-01-04T00:02:31.649Z,4.7
2023-01-04T00:03:38.914Z,4.6
2023-01-04T00:04:45.929Z,4.6
2023-01-04T00:05:53.371Z,4.3
2023-01-04T00:07:00.284Z,4.4
2023-01-04T00:08:07.549Z,4.4
2023-01-04T00:09:14.653Z,4.4
2023-01-04T00:10:23.301Z,4.6
2023-01-04T00:11:30.232Z,4.6
2023-01-04T00:12:37.622Z,4.6
2023-01-04T00:13:44.818Z,4.6
2023-01-04T00:14:51.733Z,4.6
2023-01-04T00:16:02.559Z,4.6
2023-01-04T00:17:09.242Z,4.6
2023-01-04T00:18:16.231Z,4.5
2023-01-04T00:19:24.123Z,4.4
2023-01-04T00:20:31.518Z,4.2
2023-01-04T00:21:38.451Z,4.1
2023-01-04T00:22:46.179Z,4
2023-01-04T00:23:53.332Z,3.9
2023-01-04T00:25:00.968Z,3.9
2023-01-04T00:26:08.052Z,4
2023-01-04T00:27:20.293Z,4
2023-01-04T00:28:28.193Z,4
2023-01-04T00:29:35.056Z,3.9
2023-01-04T00:30:42.189Z,3.9
2023-01-04T00:31:49.529Z,3.9
2023-01-04T00:32:56.621Z,3.9
2023-01-04T00:34:04.188Z,3.9
2023-01-04T00:35:17.984Z,3.9
2023-01-04T00:36:19.206Z,4
2023-01-04T00:37:26.416Z,4
2023-01-04T00:38:33.773Z,4.1
2023-01-04T00:39:40.696Z,4.1
2023-01-04T00:40:47.821Z,4
2023-01-04T00:41:59.960Z,3.8
2023-01-04T00:43:02.098Z,3.9
2023-01-04T00:44:09.367Z,3.7
2023-01-04T00:45:17.123Z,3.9
2023-01-04T00:46:24.186Z,3.7
2023-01-04T00:47:32.114Z,3.8
2023-01-04T00:48:40.500Z,3.8
2023-01-04T00:49:46.972Z,3.7
2023-01-04T00:50:54.139Z,3.5
2023-01-04T00:52:01.296Z,3.5
2023-01-04T00:53:09.035Z,3.5
2023-01-04T00:54:16.197Z,3.5
2023-01-04T00:55:23.160Z,3.5
2023-01-04T00:56:31.113Z,3.6
2023-01-04T00:57:37.911Z,3.6
2023-01-04T00:58:45.039Z,3.5
2023-01-04T00:59:52.161Z,3.6
2023-01-04T01:00:59.309Z,3.7
2023-01-04T01:02:09.646Z,3.8
2023-01-04T01:03:16.915Z,3.9
2023-01-04T01:04:23.855Z,3.9
2023-01-04T01:05:30.833Z,4
2023-01-04T01:06:37.956Z,4
2023-01-04T01:07:45.923Z,4.1
2023-01-04T01:08:53.146Z,4.1
2023-01-04T01:10:00.142Z,4.1
2023-01-04T01:11:07.047Z,4.1
2023-01-04T01:12:14.172Z,3.9
2023-01-04T01:13:21.287Z,3.9
2023-01-04T01:14:28.504Z,3.9
2023-01-04T01:15:35.636Z,3.8
2023-01-04T01:16:58.891Z,3.8
2023-01-04T01:17:49.947Z,3.7
2023-01-04T01:18:57.017Z,3.7
2023-01-04T01:20:04.556Z,3.7
2023-01-04T01:21:11.747Z,3.6
2023-01-04T01:22:21.950Z,3.5
2023-01-04T01:23:29.040Z,3.3
2023-01-04T01:24:36.119Z,3.4
2023-01-04T01:25:43.271Z,3.5
2023-01-04T01:26:51.270Z,3.4
2023-01-04T01:27:58.563Z,3.5
2023-01-04T01:29:07.095Z,3.5
2023-01-04T01:30:13.998Z,3.5
2023-01-04T01:31:21.075Z,3.4
2023-01-04T01:32:28.531Z,3.3
2023-01-04T01:33:35.829Z,3.4
2023-01-04T01:34:42.948Z,3.5
2023-01-04T01:35:50.154Z,3.6
2023-01-04T01:36:57.334Z,3.7
2023-01-04T01:38:04.768Z,3.7
2023-01-04T01:39:11.878Z,3.8
2023-01-04T01:40:19.297Z,3.8
2023-01-04T01:41:26.515Z,3.8
2023-01-04T01:42:34.335Z,3.8
2023-01-04T01:43:41.568Z,3.8
2023-01-04T01:44:53.810Z,3.8
2023-01-04T01:46:01.046Z,3.8
2023-01-04T01:47:09.280Z,3.8
2023-01-04T01:48:18.727Z,3.8
2023-01-04T01:49:25.963Z,3.8
2023-01-04T01:50:36.178Z,3.7
2023-01-04T01:51:43.411Z,3.7
2023-01-04T01:52:50.396Z,3.7
2023-01-04T01:53:57.508Z,3.7
2023-01-04T01:55:07.288Z,3.7
2023-01-04T01:56:14.460Z,3.7
2023-01-04T01:57:22.243Z,3.6
2023-01-04T01:58:30.667Z,3.6
2023-01-04T01:59:40.254Z,3.5
2023-01-04T02:00:47.719Z,3.5
2023-01-04T02:01:54.786Z,3.5
2023-01-04T02:03:02.181Z,3.5
2023-01-04T02:04:09.342Z,3.5
2023-01-04T02:05:16.201Z,3.4
2023-01-04T02:06:23.083Z,3.4
2023-01-04T02:07:30.408Z,3.4
2023-01-04T02:08:37.599Z,3.4
2023-01-04T02:09:44.610Z,3.4
2023-01-04T02:10:51.854Z,3.4
2023-01-04T02:11:58.921Z,3.4
2023-01-04T02:13:06.183Z,3.3
2023-01-04T02:14:13.543Z,3.4
2023-01-04T02:15:26.065Z,3.4
2023-01-04T02:16:33.028Z,3.3
2023-01-04T02:17:50.370Z,3.4
2023-01-04T02:18:57.411Z,3.4
2023-01-04T02:20:07.661Z,3.3
2023-01-04T02:21:21.626Z,3.3
2023-01-04T02:22:37.018Z,3.4
2023-01-04T02:23:54.464Z,3.3
2023-01-04T02:25:06.961Z,3.3
2023-01-04T02:26:21.840Z,3.2
2023-01-04T02:27:39.523Z,3.2
2023-01-04T02:28:57.023Z,3.2
2023-01-04T02:30:04.303Z,3.2
2023-01-04T02:31:22.165Z,3.3
2023-01-04T02:32:34.368Z,3.2
2023-01-04T02:33:47.355Z,3.2
2023-01-04T02:35:05.304Z,3.1
2023-01-04T02:36:12.559Z,2.8
2023-01-04T02:37:22.647Z,2.8
2023-01-04T02:38:37.911Z,2.8
2023-01-04T02:39:50.059Z,2.8
2023-01-04T02:41:02.354Z,2.7
2023-01-04T02:42:13.106Z,2.7
2023-01-04T02:43:31.091Z,2.6
2023-01-04T02:44:48.611Z,2.6
2023-01-04T02:45:58.444Z,2.6
2023-01-04T02:47:05.572Z,2.7
2023-01-04T02:48:12.888Z,2.8
2023-01-04T02:49:25.238Z,2.5
2023-01-04T02:50:37.543Z,2.6
2023-01-04T02:51:44.687Z,2.5
2023-01-04T02:52:52.962Z,2.6
2023-01-04T02:54:05.278Z,2.6
2023-01-04T02:55:17.392Z,2.6
2023-01-04T02:56:24.418Z,2.7
2023-01-04T02:57:41.728Z,2.6
2023-01-04T02:58:57.079Z,2.6
2023-01-04T03:00:12.940Z,2.6
2023-01-04T03:01:27.536Z,2.7
2023-01-04T03:02:50.393Z,2.5
2023-01-04T03:04:11.065Z,2.6
2023-01-04T03:05:28.854Z,2.7
2023-01-04T03:06:49.117Z,2.5
2023-01-04T03:07:56.192Z,2.5
2023-01-04T03:09:06.332Z,2.6
2023-01-04T03:10:16.709Z,2.6
2023-01-04T03:11:29.574Z,2.6
2023-01-04T03:12:41.795Z,2.5
2023-01-04T03:13:48.685Z,2.5
2023-01-04T03:14:55.892Z,2.5
2023-01-04T03:16:08.316Z,2.6
2023-01-04T03:17:15.180Z,2.5
2023-01-04T03:18:22.144Z,2.6
2023-01-04T03:19:30.043Z,2.6
2023-01-04T03:20:42.014Z,2.5
2023-01-04T03:21:49.539Z,2.5
2023-01-04T03:22:56.319Z,2.6
2023-01-04T03:24:08.635Z,2.5
2023-01-04T03:25:20.693Z,2.7
2023-01-04T03:26:36.098Z,2.6
2023-01-04T03:27:48.525Z,2.6
2023-01-04T03:29:00.568Z,2.5
2023-01-04T03:30:12.841Z,2.5
2023-01-04T03:31:25.348Z,2.5
2023-01-04T03:32:38.170Z,2.5
2023-01-04T03:33:50.442Z,2.6
2023-01-04T03:35:02.801Z,2.6
2023-01-04T03:36:15.019Z,2.6
2023-01-04T03:37:21.899Z,2.7
2023-01-04T03:38:34.868Z,2.5
2023-01-04T03:39:50.016Z,2.6
2023-01-04T03:41:10.038Z,2.7
2023-01-04T03:42:22.519Z,2.6
2023-01-04T03:43:35.180Z,2.5
2023-01-04T03:44:57.190Z,2.6
2023-01-04T03:46:14.625Z,2.5
2023-01-04T03:47:31.697Z,2.6
2023-01-04T03:48:46.868Z,2.7
2023-01-04T03:49:58.842Z,2.6
2023-01-04T03:51:05.951Z,2.6
2023-01-04T03:52:20.957Z,2.6
2023-01-04T03:53:30.783Z,2.6
2023-01-04T03:54:37.900Z,2.6
2023-01-04T03:55:45.141Z,2.6
2023-01-04T03:56:52.254Z,2.7
2023-01-04T03:57:59.403Z,2.7
2023-01-04T03:59:06.486Z,2.8
2023-01-04T04:00:13.693Z,2.7
2023-01-04T04:01:20.833Z,2.7
2023-01-04T04:02:27.969Z,2.7
2023-01-04T04:03:35.050Z,2.7
2023-01-04T04:04:47.431Z,2.7
2023-01-04T04:05:59.585Z,2.7
2023-01-04T04:07:12.074Z,2.8
2023-01-04T04:08:25.110Z,2.6
2023-01-04T04:09:35.313Z,2.6
2023-01-04T04:10:42.907Z,2.5
2023-01-04T04:11:49.892Z,2.6
2023-01-04T04:12:57.130Z,2.7
2023-01-04T04:14:05.107Z,2.8
2023-01-04T04:15:12.065Z,2.6
2023-01-04T04:16:19.236Z,2.5
2023-01-04T04:17:26.875Z,2.6
2023-01-04T04:18:33.751Z,2.7
2023-01-04T04:19:41.780Z,2.6
2023-01-04T04:20:49.086Z,2.6
2023-01-04T04:22:02.255Z,2.7
2023-01-04T04:23:09.054Z,2.6
2023-01-04T04:24:16.478Z,2.5
2023-01-04T04:25:23.775Z,2.6
2023-01-04T04:26:31.105Z,2.6
2023-01-04T04:27:38.011Z,2.6
2023-01-04T04:28:45.093Z,2.5
2023-01-04T04:29:52.221Z,2.6
2023-01-04T04:30:59.487Z,2.6
2023-01-04T04:32:06.787Z,2.6
2023-01-04T04:33:13.739Z,2.6
2023-01-04T04:34:20.889Z,2.5
2023-01-04T04:35:28.154Z,2.6
2023-01-04T04:36:35.316Z,2.5
2023-01-04T04:37:43.057Z,2.4
2023-01-04T04:38:50.879Z,2.3
2023-01-04T04:39:58.242Z,2.3
2023-01-04T04:41:05.223Z,2.3
2023-01-04T04:42:17.573Z,2.3
2023-01-04T04:43:24.377Z,2.2
2023-01-04T04:44:31.571Z,2.2
2023-01-04T04:45:38.733Z,2.2
2023-01-04T04:46:45.948Z,2.3
2023-01-04T04:47:53.274Z,2.2
2023-01-04T04:49:00.614Z,2.3
2023-01-04T04:50:08.129Z,2.1
2023-01-04T04:51:15.462Z,2.2
2023-01-04T04:52:22.604Z,2.2
2023-01-04T04:53:29.655Z,2.1
2023-01-04T04:54:37.036Z,2.1
2023-01-04T04:55:44.051Z,2.2
2023-01-04T04:56:51.107Z,2.2
2023-01-04T04:57:59.062Z,2.2
2023-01-04T04:59:06.734Z,2.3
2023-01-04T05:00:13.786Z,2.2
2023-01-04T05:01:20.825Z,2.1
2023-01-04T05:02:27.927Z,2.2
2023-01-04T05:03:34.966Z,2.2
2023-01-04T05:04:42.007Z,2.2
2023-01-04T05:05:49.033Z,2.2
2023-01-04T05:06:56.274Z,2.2
2023-01-04T05:08:04.619Z,2.1
2023-01-04T05:09:11.918Z,2.2
2023-01-04T05:10:19.779Z,2.1
2023-01-04T05:11:26.776Z,2.2
2023-01-04T05:12:40.148Z,2.1
2023-01-04T05:13:52.243Z,2.2
2023-01-04T05:14:59.507Z,2.1
2023-01-04T05:16:06.761Z,2.1
2023-01-04T05:17:14.540Z,2.1
2023-01-04T05:18:21.485Z,2.2
2023-01-04T05:19:28.430Z,2.2
2023-01-04T05:20:35.608Z,2.2
2023-01-04T05:21:42.835Z,2.1
2023-01-04T05:22:50.027Z,2
2023-01-04T05:23:58.371Z,2
2023-01-04T05:25:06.079Z,2.1
2023-01-04T05:26:13.342Z,2
2023-01-04T05:27:20.145Z,2
2023-01-04T05:28:28.187Z,1.9
2023-01-04T05:29:35.386Z,2
2023-01-04T05:30:47.539Z,2
2023-01-04T05:31:55.617Z,2
2023-01-04T05:33:03.596Z,2.1
2023-01-04T05:34:10.487Z,1.9
2023-01-04T05:35:17.615Z,1.9
2023-01-04T05:36:24.731Z,2.1
2023-01-04T05:37:31.839Z,1.9
2023-01-04T05:38:39.275Z,1.9
2023-01-04T05:39:46.189Z,1.9
2023-01-04T05:40:53.311Z,2
2023-01-04T05:42:00.480Z,2
2023-01-04T05:43:12.987Z,1.9
2023-01-04T05:44:20.654Z,2
2023-01-04T05:45:27.817Z,2.1
2023-01-04T05:46:35.083Z,2.1
2023-01-04T05:47:43.002Z,2
2023-01-04T05:48:52.914Z,2
2023-01-04T05:50:00.209Z,2
2023-01-04T05:51:07.389Z,1.8
2023-01-04T05:52:14.326Z,1.9
2023-01-04T05:53:21.350Z,1.8
2023-01-04T05:54:28.417Z,1.8
2023-01-04T05:55:35.608Z,1.8
2023-01-04T05:56:42.860Z,1.8
2023-01-04T05:57:49.959Z,1.7
2023-01-04T05:58:57.044Z,1.7
2023-01-04T06:00:04.612Z,1.8
2023-01-04T06:01:11.876Z,1.7
2023-01-04T06:02:19.253Z,1.8
2023-01-04T06:03:26.161Z,1.7
2023-01-04T06:04:33.153Z,1.7
2023-01-04T06:05:40.244Z,1.8
2023-01-04T06:06:47.424Z,1.8
2023-01-04T06:07:54.524Z,1.8
2023-01-04T06:09:01.731Z,1.9
2023-01-04T06:10:09.001Z,1.8
2023-01-04T06:11:20.233Z,1.9
2023-01-04T06:12:24.578Z,1.8
2023-01-04T06:13:33.014Z,1.8
2023-01-04T06:14:39.868Z,1.7
2023-01-04T06:15:47.015Z,1.8
2023-01-04T06:16:54.350Z,1.7
2023-01-04T06:18:01.450Z,1.7
2023-01-04T06:19:08.504Z,1.7
2023-01-04T06:20:15.875Z,1.7
2023-01-04T06:21:23.194Z,1.7
2023-01-04T06:22:30.329Z,1.7
2023-01-04T06:23:39.199Z,1.7
2023-01-04T06:24:46.327Z,1.6
2023-01-04T06:25:53.347Z,1.6
2023-01-04T06:27:00.516Z,1.6
2023-01-04T06:28:07.599Z,1.7
2023-01-04T06:29:14.743Z,1.6
2023-01-04T06:30:21.972Z,1.6
2023-01-04T06:31:29.226Z,1.6
2023-01-04T06:32:36.179Z,1.5
2023-01-04T06:33:43.216Z,1.6
2023-01-04T06:34:50.312Z,1.5
2023-01-04T06:35:57.511Z,1.5
2023-01-04T06:37:04.689Z,1.5
2023-01-04T06:38:11.978Z,1.5
2023-01-04T06:39:18.904Z,1.4
2023-01-04T06:40:25.929Z,1.4
2023-01-04T06:41:33.060Z,1.5
2023-01-04T06:42:40.465Z,1.6
2023-01-04T06:43:51.300Z,1.5
2023-01-04T06:44:58.191Z,1.5
2023-01-04T06:46:05.590Z,1.5
2023-01-04T06:47:12.530Z,1.5
2023-01-04T06:48:19.619Z,1.4
2023-01-04T06:49:26.540Z,1.5
2023-01-04T06:50:33.662Z,1.5
2023-01-04T06:51:40.850Z,1.3
2023-01-04T06:52:48.054Z,1.4
2023-01-04T06:53:55.282Z,1.4
2023-01-04T06:55:02.298Z,1.5
2023-01-04T06:56:10.351Z,1.5
2023-01-04T06:57:17.655Z,1.4
2023-01-04T06:58:24.656Z,1.5
2023-01-04T06:59:31.813Z,1.4
2023-01-04T07:00:39.032Z,1.4
2023-01-04T07:01:46.987Z,1.5
2023-01-04T07:03:12.995Z,1.4
2023-01-04T07:04:01.510Z,1.5
2023-01-04T07:05:09.515Z,1.5
2023-01-04T07:06:16.664Z,1.4
2023-01-04T07:07:24.035Z,1.3
2023-01-04T07:08:30.885Z,1.3
2023-01-04T07:09:38.120Z,1.2
2023-01-04T07:10:45.111Z,1.2
2023-01-04T07:11:52.347Z,1.3
2023-01-04T07:13:01.451Z,1.1
2023-01-04T07:14:09.122Z,1.2
2023-01-04T07:15:37.676Z,1
2023-01-04T07:16:23.356Z,1.2
2023-01-04T07:17:30.694Z,1.2
2023-01-04T07:18:38.111Z,1.1
2023-01-04T07:19:45.310Z,1.2
2023-01-04T07:20:52.491Z,1.2
2023-01-04T07:21:59.791Z,1.2
2023-01-04T07:23:06.821Z,1.3
2023-01-04T07:24:15.057Z,1.3
2023-01-04T07:25:22.027Z,1.2
2023-01-04T07:26:29.187Z,1.3
2023-01-04T07:27:36.300Z,1.2
2023-01-04T07:28:43.417Z,1.1
2023-01-04T07:29:56.009Z,1.1
2023-01-04T07:31:03.064Z,1.2
2023-01-04T07:32:13.761Z,1.2
2023-01-04T07:33:17.067Z,1.2
2023-01-04T07:34:24.389Z,1.2
2023-01-04T07:35:31.336Z,1.2
2023-01-04T07:36:38.517Z,1.2
2023-01-04T07:37:45.790Z,1.2
2023-01-04T07:38:52.828Z,1.1
2023-01-04T07:39:59.969Z,1.1
2023-01-04T07:41:07.253Z,1.1
2023-01-04T07:42:14.353Z,1.2
2023-01-04T07:43:27.638Z,1.2
2023-01-04T07:44:28.989Z,1.1
2023-01-04T07:45:36.105Z,1.1
2023-01-04T07:46:43.368Z,1.1
2023-01-04T07:47:50.472Z,1.2
2023-01-04T07:48:57.550Z,1.1
2023-01-04T07:50:04.801Z,1.2
2023-01-04T07:51:12.439Z,1.3
2023-01-04T07:52:19.404Z,1.2
2023-01-04T07:53:26.499Z,1.2
2023-01-04T07:54:33.732Z,1.2
2023-01-04T07:55:40.905Z,1.3
2023-01-04T07:56:48.177Z,1.2
2023-01-04T07:57:55.592Z,1.3
2023-01-04T07:59:02.924Z,1.3
2023-01-04T08:00:12.445Z,1.4
2023-01-04T08:01:19.740Z,1.4
2023-01-04T08:02:26.794Z,1.4
2023-01-04T08:03:34.156Z,1.5
2023-01-04T08:04:41.212Z,1.4
2023-01-04T08:05:48.459Z,1.5
2023-01-04T08:06:56.192Z,1.6
2023-01-04T08:08:03.500Z,1.4
2023-01-04T08:09:10.595Z,1.4
2023-01-04T08:10:17.743Z,1.5
2023-01-04T08:11:25.392Z,1.5
2023-01-04T08:12:32.708Z,1.4
2023-01-04T08:13:39.746Z,1.4
2023-01-04T08:14:46.773Z,1.6
2023-01-04T08:15:55.059Z,1.7
2023-01-04T08:17:03.021Z,1.6
2023-01-04T08:18:10.233Z,1.7
2023-01-04T08:19:17.653Z,1.7
2023-01-04T08:20:24.559Z,1.6
2023-01-04T08:21:31.769Z,1.5
2023-01-04T08:22:40.121Z,1.6
2023-01-04T08:23:47.851Z,1.5
2023-01-04T08:24:56.054Z,1.6
2023-01-04T08:26:03.391Z,1.5
2023-01-04T08:27:13.696Z,1.7
2023-01-04T08:28:20.979Z,1.6
2023-01-04T08:29:34.880Z,1.7
2023-01-04T08:30:38.968Z,1.6
2023-01-04T08:31:46.115Z,1.7
2023-01-04T08:32:53.275Z,1.6
2023-01-04T08:34:01.293Z,1.5
2023-01-04T08:35:08.560Z,1.6
2023-01-04T08:36:19.580Z,1.7
2023-01-04T08:37:23.410Z,1.6
2023-01-04T08:38:58.525Z,1.6
2023-01-04T08:39:37.567Z,1.5
2023-01-04T08:40:58.303Z,1.7
2023-01-04T08:42:19.132Z,1.7
2023-01-04T08:43:01.027Z,1.7
2023-01-04T08:44:07.905Z,1.9
2023-01-04T08:45:14.859Z,1.8
2023-01-04T08:46:22.101Z,1.8
2023-01-04T08:47:29.157Z,1.8
2023-01-04T08:48:36.354Z,1.8
2023-01-04T08:49:43.593Z,2
2023-01-04T08:50:50.762Z,1.9
2023-01-04T08:51:57.756Z,1.9
2023-01-04T08:53:04.795Z,1.7
2023-01-04T08:54:12.487Z,1.8
2023-01-04T08:55:23.229Z,1.8
2023-01-04T08:56:26.763Z,1.8
2023-01-04T08:57:33.930Z,1.8
2023-01-04T08:58:42.038Z,1.7
2023-01-04T08:59:49.352Z,1.8
2023-01-04T09:00:56.656Z,1.8
2023-01-04T09:02:09.204Z,1.8
2023-01-04T09:03:26.348Z,1.8
2023-01-04T09:04:33.565Z,1.9
2023-01-04T09:05:41.585Z,1.9
2023-01-04T09:06:49.539Z,1.9
2023-01-04T09:07:56.749Z,1.9
2023-01-04T09:09:03.647Z,1.9
2023-01-04T09:10:10.907Z,2
2023-01-04T09:11:18.863Z,1.8
2023-01-04T09:12:26.015Z,2
2023-01-04T09:13:33.206Z,2
2023-01-04T09:14:40.586Z,2.1
2023-01-04T09:15:48.843Z,2.2
2023-01-04T09:16:56.092Z,2.1
2023-01-04T09:18:31.536Z,2.2
2023-01-04T09:19:13.013Z,2.1
2023-01-04T09:20:20.015Z,2.1
2023-01-04T09:21:27.240Z,2.1
2023-01-04T09:22:34.344Z,2.3
2023-01-04T09:23:41.496Z,2.2
2023-01-04T09:24:48.897Z,2.3
2023-01-04T09:25:56.229Z,2.3
2023-01-04T09:27:04.661Z,2.2
2023-01-04T09:28:11.671Z,2.1
2023-01-04T09:29:18.727Z,2.1
2023-01-04T09:30:26.967Z,2.2
2023-01-04T09:31:35.060Z,2.2
2023-01-04T09:32:42.376Z,2.2
2023-01-04T09:34:18.758Z,2.2
2023-01-04T09:34:56.569Z,2.3
2023-01-04T09:36:03.737Z,2.2
2023-01-04T09:37:11.098Z,2.2
2023-01-04T09:38:18.287Z,2.2
2023-01-04T09:39:25.391Z,2.2
2023-01-04T09:40:32.535Z,2.3
2023-01-04T09:41:47.603Z,2.3
2023-01-04T09:43:20.800Z,2.3
2023-01-04T09:44:07.660Z,2.3
2023-01-04T09:45:24.105Z,2.5
2023-01-04T09:46:29.984Z,2.6
2023-01-04T09:47:48.288Z,2.5
2023-01-04T09:49:00.606Z,2.4
2023-01-04T09:50:15.896Z,2.6
2023-01-04T09:51:25.833Z,2.7
2023-01-04T09:52:32.699Z,2.6
2023-01-04T09:53:49.972Z,2.7
2023-01-04T09:54:58.946Z,2.7
2023-01-04T09:56:04.462Z,2.7
2023-01-04T09:57:19.595Z,2.7
2023-01-04T09:58:31.767Z,2.8
2023-01-04T09:59:41.501Z,2.8
2023-01-04T10:00:48.795Z,2.9
2023-01-04T10:02:04.059Z,3
2023-01-04T10:03:17.008Z,3.1
2023-01-04T10:04:30.134Z,3.2
2023-01-04T10:05:45.100Z,3.2
2023-01-04T10:06:52.162Z,3.3
2023-01-04T10:08:00.467Z,3.4
2023-01-04T10:09:08.521Z,3.6
2023-01-04T10:10:17.165Z,3.6
2023-01-04T10:31:38.341Z,4.9
2023-01-04T10:32:19.130Z,4.9
2023-01-04T10:33:27.792Z,4.9
2023-01-04T10:34:40.855Z,5
2023-01-04T10:35:48.100Z,4.9
2023-01-04T10:36:55.284Z,5
2023-01-04T10:38:03.428Z,5.2
2023-01-04T10:39:22.581Z,5.1
2023-01-04T10:40:28.502Z,5.1
2023-01-04T10:41:36.425Z,5.2
2023-01-04T10:42:46.499Z,5.1
2023-01-04T10:44:10.258Z,5.1
2023-01-04T10:45:09.682Z,5.2
2023-01-04T10:46:21.461Z,5
2023-01-04T10:47:28.438Z,5.3
2023-01-04T10:48:35.532Z,5.3
2023-01-04T10:49:42.733Z,5.4
2023-01-04T10:50:58.991Z,5.4
2023-01-04T10:52:05.929Z,5.3
2023-01-04T10:53:15.696Z,5.1
2023-01-04T10:54:22.956Z,5.1
2023-01-04T10:55:35.138Z,5.2
2023-01-04T10:56:45.264Z,5.1
2023-01-04T10:58:00.181Z,5.1
2023-01-04T10:59:17.311Z,5.1
2023-01-04T11:00:32.365Z,5.1
2023-01-04T11:01:45.439Z,5.1
2023-01-04T11:02:55.182Z,5.3
2023-01-04T11:04:03.255Z,5.1
2023-01-04T11:05:20.494Z,5.3
2023-01-04T11:06:33.825Z,5.2
2023-01-04T11:07:52.148Z,5.3
2023-01-04T11:08:59.921Z,5.3
2023-01-04T11:10:06.877Z,5.4
2023-01-04T11:11:16.485Z,5.5
2023-01-04T11:12:26.179Z,5.4
2023-01-04T11:13:33.418Z,5.5
2023-01-04T11:14:40.562Z,5.6
2023-01-04T11:15:47.675Z,5.4
2023-01-04T11:16:54.826Z,5.4
2023-01-04T11:18:01.994Z,5.6
2023-01-04T11:19:09.208Z,5.7
2023-01-04T11:20:17.292Z,5.7
2023-01-04T11:21:24.450Z,5.7
2023-01-04T11:22:34.031Z,5.5
2023-01-04T11:23:41.281Z,5.6
2023-01-04T11:25:24.485Z,5.5
2023-01-04T11:25:56.255Z,5.5
2023-01-04T11:27:02.708Z,5.5
2023-01-04T11:28:10.721Z,5.7
2023-01-04T11:29:23.683Z,5.5
2023-01-04T11:30:33.592Z,5.5
2023-01-04T11:31:47.609Z,5.5
2023-01-04T11:32:55.282Z,5.4
2023-01-04T11:34:07.713Z,5.3
2023-01-04T11:35:14.789Z,5.2
2023-01-04T11:36:32.465Z,5.2
2023-01-04T11:37:44.277Z,5.4
2023-01-04T11:39:11.298Z,5.4
2023-01-04T11:40:22.563Z,5.3
2023-01-04T11:41:29.697Z,5.4
2023-01-04T11:42:36.738Z,5.2
2023-01-04T11:43:43.941Z,5.4
2023-01-04T11:44:51.057Z,5.6
2023-01-04T11:46:02.234Z,5.7
2023-01-04T11:47:19.654Z,5.8
2023-01-04T11:48:29.778Z,5.7
2023-01-04T11:49:37.177Z,5.7
2023-01-04T11:50:44.117Z,5.7
2023-01-04T11:51:51.264Z,5.7
2023-01-04T11:52:58.533Z,5.6
2023-01-04T11:54:05.409Z,5.9
2023-01-04T11:55:18.051Z,5.8
2023-01-04T11:56:30.455Z,5.9
2023-01-04T11:57:40.770Z,6.1
2023-01-04T11:58:48.337Z,6.1
2023-01-04T12:00:06.021Z,6.1
2023-01-04T12:01:13.573Z,6.1
2023-01-04T12:03:33.560Z,6.4
2023-01-04T12:04:44.085Z,6.5
2023-01-04T12:05:50.864Z,6.5
2023-01-04T12:06:59.997Z,6.4
2023-01-04T12:08:07.180Z,6.3
2023-01-04T12:09:23.291Z,6.2
2023-01-04T12:10:30.871Z,6.2
2023-01-04T12:11:37.761Z,6.2
2023-01-04T12:12:49.962Z,6.3
2023-01-04T12:13:58.430Z,6.3
2023-01-04T12:15:05.260Z,6.2
2023-01-04T12:16:12.742Z,6.1
2023-01-04T12:17:24.694Z,6.2
2023-01-04T12:18:32.029Z,6.1
2023-01-04T12:19:40.325Z,6.1
2023-01-04T12:20:47.556Z,6.1
2023-01-04T12:21:55.030Z,6.1
2023-01-04T12:23:02.339Z,6
2023-01-04T12:24:09.841Z,6.1
2023-01-04T12:25:18.350Z,6.1
2023-01-04T12:26:28.460Z,6.1
2023-01-04T12:27:35.596Z,5.9
2023-01-04T12:28:42.572Z,5.9
2023-01-04T12:29:49.713Z,5.8
2023-01-04T12:32:20.203Z,5.8
2023-01-04T12:33:30.849Z,5.9
2023-01-04T12:34:38.952Z,5.9
2023-01-04T12:35:49.590Z,5.8
2023-01-04T12:37:07.199Z,5.7
2023-01-04T12:38:14.204Z,5.9
2023-01-04T12:39:22.253Z,5.9
2023-01-04T12:40:39.581Z,5.8
2023-01-04T12:41:50.907Z,5.9
2023-01-04T12:43:02.932Z,5.8
2023-01-04T12:44:17.740Z,5.9
2023-01-04T12:45:39.516Z,5.7
2023-01-04T12:46:52.109Z,5.7
2023-01-04T12:48:04.383Z,5.8
2023-01-04T12:49:27.083Z,5.8
2023-01-04T12:50:38.273Z,5.8
2023-01-04T12:51:51.771Z,5.8
2023-01-04T12:53:59.041Z,5.9
2023-01-04T12:55:06.073Z,5.9
2023-01-04T12:56:23.390Z,5.9
2023-01-04T12:57:41.631Z,6.1
2023-01-04T12:59:23.994Z,6.1
2023-01-04T13:00:06.336Z,6.1
2023-01-04T13:01:14.379Z,6.1
2023-01-04T13:02:24.632Z,6.2
2023-01-04T13:03:36.773Z,6.3
2023-01-04T13:04:46.957Z,6.4
2023-01-04T13:05:56.414Z,6.2
2023-01-04T13:07:05.184Z,6.3
2023-01-04T13:08:12.355Z,6.3
2023-01-04T13:09:24.433Z,6.3
2023-01-04T13:10:27.861Z,6.3
2023-01-04T13:11:34.825Z,6.4
2023-01-04T13:12:51.328Z,6.4
2023-01-04T13:14:09.083Z,6.4
2023-01-04T13:15:21.205Z,6.3
2023-01-04T13:16:28.372Z,6.4
2023-01-04T13:17:45.527Z,6.4
2023-01-04T13:18:52.828Z,6.3
2023-01-04T13:20:00.793Z,6.3
2023-01-04T13:21:20.882Z,6.3
2023-01-04T13:22:33.856Z,6.4
2023-01-04T13:23:41.048Z,6.4
2023-01-04T13:24:53.338Z,6.4
2023-01-04T13:26:00.395Z,6.3
2023-01-04T13:27:18.963Z,6.3
2023-01-04T13:28:26.820Z,6.4
2023-01-04T13:29:34.645Z,6.4
2023-01-04T13:30:41.752Z,6.3
2023-01-04T13:31:49.707Z,6.3
2023-01-04T13:33:25.358Z,6.3
2023-01-04T13:34:14.853Z,6.2
2023-01-04T13:35:24.586Z,6.3
2023-01-04T13:36:31.624Z,6.4
2023-01-04T13:37:38.901Z,6.5
2023-01-04T13:38:45.966Z,6.3
2023-01-04T13:39:53.883Z,6.4
2023-01-04T13:41:11.407Z,6.3
2023-01-04T13:42:24.148Z,6.3
2023-01-04T13:43:35.788Z,6.3
2023-01-04T13:45:19.436Z,6.3
2023-01-04T13:46:06.932Z,6.4
2023-01-04T13:47:19.236Z,6.3
2023-01-04T13:48:27.323Z,6.3
2023-01-04T13:49:34.434Z,6.2
2023-01-04T13:50:41.611Z,6.2
2023-01-04T13:51:48.742Z,6.2
2023-01-04T13:53:06.021Z,6.3
2023-01-04T13:54:03.467Z,6.4
2023-01-04T13:55:10.659Z,6.3
2023-01-04T13:56:28.136Z,6.3
2023-01-04T13:57:38.104Z,6.2
2023-01-04T13:58:45.300Z,6.3
2023-01-04T13:59:53.389Z,6.3
2023-01-04T14:01:00.704Z,6.3
2023-01-04T14:02:11.108Z,6.2
2023-01-04T14:03:18.115Z,6.3
2023-01-04T14:04:30.699Z,6.2
2023-01-04T14:05:37.784Z,6.4
2023-01-04T14:06:47.867Z,6.3
2023-01-04T14:07:55.071Z,6.3
2023-01-04T14:09:02.484Z,6.4
2023-01-04T14:10:09.809Z,6.4
2023-01-04T14:11:19.985Z,6.3
2023-01-04T14:12:34.686Z,6.4
2023-01-04T14:13:41.857Z,6.4
2023-01-04T14:14:49.439Z,6.4
2023-01-04T14:15:59.909Z,6.4
2023-01-04T14:17:14.017Z,6.3
2023-01-04T14:18:26.052Z,6.2
2023-01-04T14:19:34.201Z,6.3
2023-01-04T14:20:46.733Z,6.3
2023-01-04T14:21:53.661Z,6.4
2023-01-04T14:23:00.940Z,6.4
2023-01-04T14:24:07.916Z,6.5
2023-01-04T14:25:25.248Z,6.5
2023-01-04T14:26:36.183Z,6.5
2023-01-04T14:27:43.659Z,6.5
2023-01-04T14:28:50.992Z,6.5
2023-01-04T14:29:58.294Z,6.5
2023-01-04T14:31:10.579Z,6.5
2023-01-04T14:32:17.997Z,6.5
2023-01-04T14:33:24.789Z,6.4
2023-01-04T14:34:34.674Z,6.4
2023-01-04T14:35:43.981Z,6.6
2023-01-04T14:36:49.614Z,6.7
2023-01-04T14:37:56.915Z,6.6
2023-01-04T14:39:07.487Z,6.5
2023-01-04T14:40:14.836Z,6.5
2023-01-04T14:41:22.799Z,6.6
2023-01-04T14:42:40.753Z,6.6
2023-01-04T14:43:48.089Z,6.6
2023-01-04T14:44:54.953Z,6.6
2023-01-04T14:46:02.063Z,6.6
2023-01-04T14:47:11.243Z,6.7
2023-01-04T14:48:23.597Z,6.6
2023-01-04T14:49:25.788Z,6.6
2023-01-04T14:50:33.963Z,6.7
2023-01-04T14:51:41.465Z,6.6
2023-01-04T14:52:56.815Z,6.6
2023-01-04T14:54:05.458Z,6.6
2023-01-04T14:55:13.210Z,6.7
2023-01-04T14:56:20.609Z,6.6
2023-01-04T14:57:28.476Z,6.6
2023-01-04T14:58:35.737Z,6.4
2023-01-04T14:59:42.939Z,6.5
2023-01-04T15:00:50.943Z,6.6
2023-01-04T15:01:58.537Z,6.4
2023-01-04T15:03:05.530Z,6.4
2023-01-04T15:04:13.283Z,6.4
2023-01-04T15:05:21.589Z,6.3
2023-01-04T15:13:15.234Z,6.1
2023-01-04T15:14:25.855Z,6.1
2023-01-04T15:15:35.966Z,6.1
2023-01-04T15:16:47.310Z,5.9
2023-01-04T15:44:54.119Z,5.8
2023-01-04T15:46:02.234Z,5.8
2023-01-04T15:47:10.772Z,5.8
2023-01-04T15:48:18.154Z,5.7
2023-01-04T15:49:25.205Z,5.7
2023-01-04T15:50:32.277Z,5.7
2023-01-04T15:51:40.373Z,5.7
2023-01-04T15:52:47.914Z,5.6
2023-01-04T15:53:54.871Z,5.8
2023-01-04T15:55:03.415Z,5.7
2023-01-04T15:56:10.656Z,5.7
2023-01-04T15:57:17.913Z,5.6
2023-01-04T15:58:24.969Z,5.6
2023-01-04T15:59:32.005Z,5.7
2023-01-04T16:00:39.342Z,5.6
2023-01-04T16:01:46.805Z,5.7
2023-01-04T16:02:53.980Z,5.8
2023-01-04T16:04:02.169Z,5.8
2023-01-04T16:05:09.468Z,5.8
2023-01-04T16:06:16.425Z,5.6
2023-01-04T16:07:23.518Z,5.6
2023-01-04T16:08:30.270Z,5.7
2023-01-04T16:09:37.306Z,5.8
2023-01-04T16:10:44.369Z,5.7
2023-01-04T16:11:51.469Z,5.6
2023-01-04T16:13:04.305Z,5.6
2023-01-04T16:14:11.482Z,5.6
2023-01-04T16:15:18.700Z,5.7
2023-01-04T16:16:26.600Z,5.7
2023-01-04T16:17:34.362Z,5.7
2023-01-04T16:18:41.694Z,5.7
2023-01-04T16:19:54.135Z,5.8
2023-01-04T16:21:00.971Z,5.8
2023-01-04T16:22:08.081Z,5.8
2023-01-04T16:23:15.773Z,5.6
2023-01-04T16:24:59.927Z,5.6
2023-01-04T16:25:30.878Z,5.7
2023-01-04T16:26:38.967Z,5.6
2023-01-04T16:27:45.994Z,5.7
2023-01-04T16:28:53.980Z,5.6
2023-01-04T16:30:01.198Z,5.7
2023-01-04T16:31:08.860Z,5.7
2023-01-04T16:32:15.884Z,5.8
2023-01-04T16:33:23.177Z,5.7
2023-01-04T16:34:30.297Z,5.7
2023-01-04T16:35:37.392Z,5.8
2023-01-04T16:36:44.363Z,5.8
2023-01-04T16:37:54.540Z,5.8
2023-01-04T16:39:01.705Z,5.7
2023-01-04T16:40:09.691Z,5.7
2023-01-04T16:41:16.134Z,5.7
2023-01-04T16:42:23.124Z,5.7
2023-01-04T16:43:31.130Z,5.8
2023-01-04T16:44:38.373Z,5.9
2023-01-04T16:45:45.568Z,5.8
2023-01-04T16:46:52.933Z,5.8
2023-01-04T16:48:00.584Z,5.8